sensor_id;sensor_type;location;lat;lon;timestamp;P1;durP1;ratioP1;P2;durP2;ratioP2
1799;SDS011;919;48.274;12.292;2023-08-01T00:01:37;2.43;;;2.23;;
1799;SDS011;919;48.274;12.292;2023-08-01T00:04:04;2.57;;;2.37;;
1799;SDS011;919;48.274;12.292;2023-08-01T00:06:30;4.10;;;2.73;;
1799;SDS011;919;48.274;12.292;2023-08-01T00:08:57;4.53;;;3.07;;
1799;SDS011;919;48.274;12.292;2023-08-01T00:11:24;3.43;;;3.10;;
1799;SDS011;919;48.274;12.292;2023-08-01T00:13:51;3.50;;;3.20;;
1799;SDS011;919;48.274;12.292;2023-08-01T00:16:19;3.80;;;3.10;;
1799;SDS011;919;48.274;12.292;2023-08-01T00:18:45;2.73;;;2.30;;
1799;SDS011;919;48.274;12.292;2023-08-01T00:21:12;2.80;;;2.60;;
1799;SDS011;919;48.274;12.292;2023-08-01T00:23:39;2.37;;;2.17;;
1799;SDS011;919;48.274;12.292;2023-08-01T00:26:06;3.43;;;2.57;;
1799;SDS011;919;48.274;12.292;2023-08-01T00:28:32;3.10;;;2.90;;
1799;SDS011;919;48.274;12.292;2023-08-01T00:31:03;6.60;;;3.20;;
1799;SDS011;919;48.274;12.292;2023-08-01T00:33:32;3.20;;;2.97;;
1799;SDS011;919;48.274;12.292;2023-08-01T00:35:58;3.27;;;2.97;;
1799;SDS011;919;48.274;12.292;2023-08-01T00:38:25;3.30;;;2.80;;
1799;SDS011;919;48.274;12.292;2023-08-01T00:40:52;4.30;;;2.70;;
1799;SDS011;919;48.274;12.292;2023-08-01T00:43:19;3.30;;;3.00;;
1799;SDS011;919;48.274;12.292;2023-08-01T00:45:45;3.10;;;2.67;;
1799;SDS011;919;48.274;12.292;2023-08-01T00:48:13;3.27;;;2.97;;
1799;SDS011;919;48.274;12.292;2023-08-01T00:50:41;3.90;;;2.50;;
1799;SDS011;919;48.274;12.292;2023-08-01T00:53:07;2.83;;;2.63;;
1799;SDS011;919;48.274;12.292;2023-08-01T00:55:34;4.67;;;3.17;;
1799;SDS011;919;48.274;12.292;2023-08-01T00:58:02;3.60;;;3.30;;
1799;SDS011;919;48.274;12.292;2023-08-01T01:00:29;3.90;;;3.03;;
1799;SDS011;919;48.274;12.292;2023-08-01T01:02:56;3.43;;;2.60;;
1799;SDS011;919;48.274;12.292;2023-08-01T01:05:23;7.60;;;3.20;;
1799;SDS011;919;48.274;12.292;2023-08-01T01:07:52;3.03;;;2.73;;
1799;SDS011;919;48.274;12.292;2023-08-01T01:10:20;3.83;;;3.43;;
1799;SDS011;919;48.274;12.292;2023-08-01T01:12:47;7.80;;;3.03;;
1799;SDS011;919;48.274;12.292;2023-08-01T01:15:15;3.67;;;3.37;;
1799;SDS011;919;48.274;12.292;2023-08-01T01:17:42;3.73;;;3.37;;
1799;SDS011;919;48.274;12.292;2023-08-01T01:20:09;3.00;;;2.70;;
1799;SDS011;919;48.274;12.292;2023-08-01T01:22:37;3.63;;;2.97;;
1799;SDS011;919;48.274;12.292;2023-08-01T01:25:07;6.70;;;3.10;;
1799;SDS011;919;48.274;12.292;2023-08-01T01:27:35;8.03;;;3.63;;
1799;SDS011;919;48.274;12.292;2023-08-01T01:30:04;3.87;;;2.97;;
1799;SDS011;919;48.274;12.292;2023-08-01T01:32:33;5.80;;;3.60;;
1799;SDS011;919;48.274;12.292;2023-08-01T01:35:00;3.10;;;2.90;;
1799;SDS011;919;48.274;12.292;2023-08-01T01:37:29;5.63;;;3.50;;
1799;SDS011;919;48.274;12.292;2023-08-01T01:39:57;4.50;;;3.13;;
1799;SDS011;919;48.274;12.292;2023-08-01T01:42:23;3.40;;;2.97;;
1799;SDS011;919;48.274;12.292;2023-08-01T01:44:50;3.10;;;2.80;;
1799;SDS011;919;48.274;12.292;2023-08-01T01:47:17;3.10;;;2.80;;
1799;SDS011;919;48.274;12.292;2023-08-01T01:49:44;3.20;;;2.90;;
1799;SDS011;919;48.274;12.292;2023-08-01T01:52:10;4.93;;;3.23;;
1799;SDS011;919;48.274;12.292;2023-08-01T01:54:37;2.63;;;2.43;;
1799;SDS011;919;48.274;12.292;2023-08-01T01:57:05;3.30;;;3.00;;
1799;SDS011;919;48.274;12.292;2023-08-01T01:59:32;3.80;;;3.50;;
1799;SDS011;919;48.274;12.292;2023-08-01T02:01:59;3.27;;;2.90;;
1799;SDS011;919;48.274;12.292;2023-08-01T02:04:25;2.97;;;2.70;;
1799;SDS011;919;48.274;12.292;2023-08-01T02:06:52;3.13;;;2.80;;
1799;SDS011;919;48.274;12.292;2023-08-01T02:09:19;3.30;;;3.00;;
1799;SDS011;919;48.274;12.292;2023-08-01T02:11:46;3.77;;;3.33;;
1799;SDS011;919;48.274;12.292;2023-08-01T02:14:15;5.07;;;3.27;;
1799;SDS011;919;48.274;12.292;2023-08-01T02:16:42;3.13;;;2.83;;
1799;SDS011;919;48.274;12.292;2023-08-01T02:19:08;4.90;;;3.90;;
1799;SDS011;919;48.274;12.292;2023-08-01T02:21:35;3.80;;;3.37;;
1799;SDS011;919;48.274;12.292;2023-08-01T02:24:02;4.57;;;2.90;;
1799;SDS011;919;48.274;12.292;2023-08-01T02:26:29;3.90;;;3.50;;
1799;SDS011;919;48.274;12.292;2023-08-01T02:28:56;2.80;;;2.53;;
1799;SDS011;919;48.274;12.292;2023-08-01T02:31:25;3.83;;;2.97;;
1799;SDS011;919;48.274;12.292;2023-08-01T02:33:51;3.37;;;2.80;;
1799;SDS011;919;48.274;12.292;2023-08-01T02:36:18;3.07;;;2.67;;
1799;SDS011;919;48.274;12.292;2023-08-01T02:38:45;4.53;;;3.20;;
1799;SDS011;919;48.274;12.292;2023-08-01T02:41:11;3.50;;;3.13;;
1799;SDS011;919;48.274;12.292;2023-08-01T02:43:38;3.67;;;3.27;;
1799;SDS011;919;48.274;12.292;2023-08-01T02:46:06;8.67;;;2.80;;
1799;SDS011;919;48.274;12.292;2023-08-01T02:48:34;4.63;;;3.00;;
1799;SDS011;919;48.274;12.292;2023-08-01T02:51:01;3.70;;;3.40;;
1799;SDS011;919;48.274;12.292;2023-08-01T02:53:28;3.30;;;3.00;;
1799;SDS011;919;48.274;12.292;2023-08-01T02:55:55;3.70;;;3.00;;
1799;SDS011;919;48.274;12.292;2023-08-01T02:58:21;4.23;;;3.10;;
1799;SDS011;919;48.274;12.292;2023-08-01T03:00:48;3.83;;;3.50;;
1799;SDS011;919;48.274;12.292;2023-08-01T03:03:15;3.80;;;2.87;;
1799;SDS011;919;48.274;12.292;2023-08-01T03:05:43;3.17;;;2.70;;
1799;SDS011;919;48.274;12.292;2023-08-01T03:08:09;2.90;;;2.60;;
1799;SDS011;919;48.274;12.292;2023-08-01T03:10:36;3.33;;;3.03;;
1799;SDS011;919;48.274;12.292;2023-08-01T03:13:03;3.83;;;3.03;;
1799;SDS011;919;48.274;12.292;2023-08-01T03:15:30;2.63;;;2.30;;
1799;SDS011;919;48.274;12.292;2023-08-01T03:17:57;3.90;;;2.90;;
1799;SDS011;919;48.274;12.292;2023-08-01T03:20:23;3.50;;;3.20;;
1799;SDS011;919;48.274;12.292;2023-08-01T03:22:51;3.53;;;3.23;;
1799;SDS011;919;48.274;12.292;2023-08-01T03:25:18;4.57;;;3.50;;
1799;SDS011;919;48.274;12.292;2023-08-01T03:27:45;4.53;;;2.90;;
1799;SDS011;919;48.274;12.292;2023-08-01T03:30:12;4.13;;;3.00;;
1799;SDS011;919;48.274;12.292;2023-08-01T03:32:39;3.13;;;2.70;;
1799;SDS011;919;48.274;12.292;2023-08-01T03:35:06;3.30;;;3.00;;
1799;SDS011;919;48.274;12.292;2023-08-01T03:37:33;3.50;;;2.50;;
1799;SDS011;919;48.274;12.292;2023-08-01T03:40:01;3.50;;;2.60;;
1799;SDS011;919;48.274;12.292;2023-08-01T03:42:28;3.40;;;3.00;;
1799;SDS011;919;48.274;12.292;2023-08-01T03:44:55;4.50;;;2.87;;
1799;SDS011;919;48.274;12.292;2023-08-01T03:47:22;5.10;;;3.77;;
1799;SDS011;919;48.274;12.292;2023-08-01T03:49:48;3.70;;;3.10;;
1799;SDS011;919;48.274;12.292;2023-08-01T03:52:15;3.07;;;2.73;;
1799;SDS011;919;48.274;12.292;2023-08-01T03:54:42;3.17;;;2.87;;
1799;SDS011;919;48.274;12.292;2023-08-01T03:57:10;5.17;;;3.33;;
1799;SDS011;919;48.274;12.292;2023-08-01T03:59:36;3.40;;;3.10;;
1799;SDS011;919;48.274;12.292;2023-08-01T04:02:03;2.90;;;2.60;;
1799;SDS011;919;48.274;12.292;2023-08-01T04:04:30;3.73;;;3.07;;
1799;SDS011;919;48.274;12.292;2023-08-01T04:06:57;2.90;;;2.57;;
1799;SDS011;919;48.274;12.292;2023-08-01T04:09:23;3.90;;;3.50;;
1799;SDS011;919;48.274;12.292;2023-08-01T04:11:50;3.33;;;3.03;;
1799;SDS011;919;48.274;12.292;2023-08-01T04:14:18;3.87;;;3.50;;
1799;SDS011;919;48.274;12.292;2023-08-01T04:16:45;3.77;;;2.90;;
1799;SDS011;919;48.274;12.292;2023-08-01T04:19:12;4.63;;;3.37;;
1799;SDS011;919;48.274;12.292;2023-08-01T04:21:39;3.70;;;3.37;;
1799;SDS011;919;48.274;12.292;2023-08-01T04:24:05;6.10;;;3.40;;
1799;SDS011;919;48.274;12.292;2023-08-01T04:26:32;7.10;;;2.90;;
1799;SDS011;919;48.274;12.292;2023-08-01T04:28:59;3.33;;;3.00;;
1799;SDS011;919;48.274;12.292;2023-08-01T04:31:27;3.80;;;3.07;;
1799;SDS011;919;48.274;12.292;2023-08-01T04:33:54;3.20;;;3.00;;
1799;SDS011;919;48.274;12.292;2023-08-01T04:36:21;4.73;;;3.47;;
1799;SDS011;919;48.274;12.292;2023-08-01T04:38:47;4.47;;;3.30;;
1799;SDS011;919;48.274;12.292;2023-08-01T04:41:14;3.87;;;3.47;;
1799;SDS011;919;48.274;12.292;2023-08-01T04:43:41;4.27;;;3.20;;
1799;SDS011;919;48.274;12.292;2023-08-01T04:46:08;3.60;;;2.83;;
1799;SDS011;919;48.274;12.292;2023-08-01T04:48:36;4.30;;;3.10;;
1799;SDS011;919;48.274;12.292;2023-08-01T04:51:02;3.63;;;2.87;;
1799;SDS011;919;48.274;12.292;2023-08-01T04:53:29;3.40;;;3.10;;
1799;SDS011;919;48.274;12.292;2023-08-01T04:55:56;4.00;;;3.00;;
1799;SDS011;919;48.274;12.292;2023-08-01T04:58:23;6.90;;;3.90;;
1799;SDS011;919;48.274;12.292;2023-08-01T05:00:49;3.30;;;2.80;;
1799;SDS011;919;48.274;12.292;2023-08-01T05:03:16;4.90;;;3.00;;
1799;SDS011;919;48.274;12.292;2023-08-01T05:05:44;4.67;;;3.37;;
1799;SDS011;919;48.274;12.292;2023-08-01T05:08:11;4.90;;;3.60;;
1799;SDS011;919;48.274;12.292;2023-08-01T05:10:37;7.90;;;3.80;;
1799;SDS011;919;48.274;12.292;2023-08-01T05:13:05;5.13;;;3.67;;
1799;SDS011;919;48.274;12.292;2023-08-01T05:15:32;4.20;;;3.30;;
1799;SDS011;919;48.274;12.292;2023-08-01T05:17:58;3.50;;;3.10;;
1799;SDS011;919;48.274;12.292;2023-08-01T05:20:25;4.30;;;3.77;;
1799;SDS011;919;48.274;12.292;2023-08-01T05:22:57;4.87;;;3.67;;
1799;SDS011;919;48.274;12.292;2023-08-01T05:25:24;3.30;;;3.00;;
1799;SDS011;919;48.274;12.292;2023-08-01T05:27:50;3.43;;;3.10;;
1799;SDS011;919;48.274;12.292;2023-08-01T05:30:17;3.87;;;3.10;;
1799;SDS011;919;48.274;12.292;2023-08-01T05:32:44;3.20;;;2.90;;
1799;SDS011;919;48.274;12.292;2023-08-01T05:35:12;3.07;;;2.87;;
1799;SDS011;919;48.274;12.292;2023-08-01T05:37:38;4.17;;;2.60;;
1799;SDS011;919;48.274;12.292;2023-08-01T05:40:07;4.43;;;3.00;;
1799;SDS011;919;48.274;12.292;2023-08-01T05:42:35;4.23;;;3.33;;
1799;SDS011;919;48.274;12.292;2023-08-01T05:45:02;3.30;;;3.00;;
1799;SDS011;919;48.274;12.292;2023-08-01T05:47:29;4.23;;;3.40;;
1799;SDS011;919;48.274;12.292;2023-08-01T05:49:56;6.17;;;3.37;;
1799;SDS011;919;48.274;12.292;2023-08-01T05:52:22;4.30;;;3.40;;
1799;SDS011;919;48.274;12.292;2023-08-01T05:54:49;5.40;;;3.27;;
1799;SDS011;919;48.274;12.292;2023-08-01T05:57:17;4.33;;;2.90;;
1799;SDS011;919;48.274;12.292;2023-08-01T05:59:44;3.40;;;2.93;;
1799;SDS011;919;48.274;12.292;2023-08-01T06:02:11;5.03;;;3.53;;
1799;SDS011;919;48.274;12.292;2023-08-01T06:04:37;5.80;;;3.97;;
1799;SDS011;919;48.274;12.292;2023-08-01T06:07:04;4.57;;;4.17;;
1799;SDS011;919;48.274;12.292;2023-08-01T06:09:31;4.60;;;3.43;;
1799;SDS011;919;48.274;12.292;2023-08-01T06:11:58;3.60;;;3.30;;
1799;SDS011;919;48.274;12.292;2023-08-01T06:14:26;5.77;;;3.73;;
1799;SDS011;919;48.274;12.292;2023-08-01T06:16:53;4.00;;;3.07;;
1799;SDS011;919;48.274;12.292;2023-08-01T06:19:20;3.73;;;3.33;;
1799;SDS011;919;48.274;12.292;2023-08-01T06:21:46;6.03;;;4.10;;
1799;SDS011;919;48.274;12.292;2023-08-01T06:24:13;5.07;;;3.50;;
1799;SDS011;919;48.274;12.292;2023-08-01T06:26:40;6.43;;;4.53;;
1799;SDS011;919;48.274;12.292;2023-08-01T06:29:06;5.27;;;3.20;;
1799;SDS011;919;48.274;12.292;2023-08-01T06:31:34;4.43;;;3.87;;
1799;SDS011;919;48.274;12.292;2023-08-01T06:34:01;5.70;;;3.87;;
1799;SDS011;919;48.274;12.292;2023-08-01T06:36:28;4.17;;;3.77;;
1799;SDS011;919;48.274;12.292;2023-08-01T06:38:54;5.77;;;3.80;;
1799;SDS011;919;48.274;12.292;2023-08-01T06:41:21;5.47;;;3.40;;
1799;SDS011;919;48.274;12.292;2023-08-01T06:43:48;6.13;;;3.83;;
1799;SDS011;919;48.274;12.292;2023-08-01T06:46:15;4.97;;;3.93;;
1799;SDS011;919;48.274;12.292;2023-08-01T06:48:43;7.23;;;3.70;;
1799;SDS011;919;48.274;12.292;2023-08-01T06:51:09;3.77;;;3.47;;
1799;SDS011;919;48.274;12.292;2023-08-01T06:53:36;4.27;;;2.93;;
1799;SDS011;919;48.274;12.292;2023-08-01T06:56:03;4.40;;;3.43;;
1799;SDS011;919;48.274;12.292;2023-08-01T06:58:30;5.17;;;3.70;;
1799;SDS011;919;48.274;12.292;2023-08-01T07:00:57;3.87;;;3.47;;
1799;SDS011;919;48.274;12.292;2023-08-01T07:03:24;5.70;;;3.40;;
1799;SDS011;919;48.274;12.292;2023-08-01T07:05:52;8.03;;;3.93;;
1799;SDS011;919;48.274;12.292;2023-08-01T07:08:18;6.50;;;3.40;;
1799;SDS011;919;48.274;12.292;2023-08-01T07:10:46;4.40;;;3.40;;
1799;SDS011;919;48.274;12.292;2023-08-01T07:13:13;4.60;;;3.43;;
1799;SDS011;919;48.274;12.292;2023-08-01T07:15:41;6.73;;;3.70;;
1799;SDS011;919;48.274;12.292;2023-08-01T07:18:08;4.50;;;3.70;;
1799;SDS011;919;48.274;12.292;2023-08-01T07:20:34;4.63;;;3.73;;
1799;SDS011;919;48.274;12.292;2023-08-01T07:23:03;3.70;;;3.40;;
1799;SDS011;919;48.274;12.292;2023-08-01T07:25:29;3.43;;;3.13;;
1799;SDS011;919;48.274;12.292;2023-08-01T07:27:56;7.20;;;3.47;;
1799;SDS011;919;48.274;12.292;2023-08-01T07:30:23;4.13;;;3.70;;
1799;SDS011;919;48.274;12.292;2023-08-01T07:32:49;5.13;;;3.70;;
1799;SDS011;919;48.274;12.292;2023-08-01T07:35:16;4.90;;;3.70;;
1799;SDS011;919;48.274;12.292;2023-08-01T07:37:43;4.50;;;4.10;;
1799;SDS011;919;48.274;12.292;2023-08-01T07:40:18;3.70;;;3.23;;
1799;SDS011;919;48.274;12.292;2023-08-01T07:42:45;8.13;;;4.27;;
1799;SDS011;919;48.274;12.292;2023-08-01T07:45:12;4.50;;;3.60;;
1799;SDS011;919;48.274;12.292;2023-08-01T07:47:39;3.87;;;3.33;;
1799;SDS011;919;48.274;12.292;2023-08-01T07:50:06;4.20;;;3.60;;
1799;SDS011;919;48.274;12.292;2023-08-01T07:52:34;4.67;;;3.67;;
1799;SDS011;919;48.274;12.292;2023-08-01T07:55:02;4.43;;;3.40;;
1799;SDS011;919;48.274;12.292;2023-08-01T07:57:31;3.93;;;3.40;;
1799;SDS011;919;48.274;12.292;2023-08-01T07:59:58;4.93;;;4.13;;
1799;SDS011;919;48.274;12.292;2023-08-01T08:02:25;6.73;;;3.67;;
1799;SDS011;919;48.274;12.292;2023-08-01T08:04:52;4.63;;;4.23;;
1799;SDS011;919;48.274;12.292;2023-08-01T08:07:20;3.40;;;3.07;;
1799;SDS011;919;48.274;12.292;2023-08-01T08:09:48;6.00;;;3.87;;
1799;SDS011;919;48.274;12.292;2023-08-01T08:12:15;4.90;;;3.37;;
1799;SDS011;919;48.274;12.292;2023-08-01T08:14:43;5.70;;;3.67;;
1799;SDS011;919;48.274;12.292;2023-08-01T08:17:10;4.13;;;3.50;;
1799;SDS011;919;48.274;12.292;2023-08-01T08:19:37;4.53;;;4.10;;
1799;SDS011;919;48.274;12.292;2023-08-01T08:22:05;5.23;;;3.70;;
1799;SDS011;919;48.274;12.292;2023-08-01T08:24:32;5.10;;;3.37;;
1799;SDS011;919;48.274;12.292;2023-08-01T08:26:59;3.50;;;3.20;;
1799;SDS011;919;48.274;12.292;2023-08-01T08:29:27;4.30;;;3.90;;
1799;SDS011;919;48.274;12.292;2023-08-01T08:31:56;4.73;;;3.90;;
1799;SDS011;919;48.274;12.292;2023-08-01T08:34:23;5.83;;;3.20;;
1799;SDS011;919;48.274;12.292;2023-08-01T08:36:51;4.03;;;3.43;;
1799;SDS011;919;48.274;12.292;2023-08-01T08:39:18;4.50;;;3.07;;
1799;SDS011;919;48.274;12.292;2023-08-01T08:41:47;4.70;;;3.57;;
1799;SDS011;919;48.274;12.292;2023-08-01T08:44:15;7.03;;;3.90;;
1799;SDS011;919;48.274;12.292;2023-08-01T08:46:44;5.20;;;3.80;;
1799;SDS011;919;48.274;12.292;2023-08-01T08:49:18;5.83;;;4.40;;
1799;SDS011;919;48.274;12.292;2023-08-01T08:51:49;5.60;;;4.80;;
1799;SDS011;919;48.274;12.292;2023-08-01T08:54:16;6.77;;;5.07;;
1799;SDS011;919;48.274;12.292;2023-08-01T08:56:44;7.40;;;4.17;;
1799;SDS011;919;48.274;12.292;2023-08-01T08:59:12;4.80;;;3.77;;
1799;SDS011;919;48.274;12.292;2023-08-01T09:01:39;4.90;;;4.23;;
1799;SDS011;919;48.274;12.292;2023-08-01T09:04:08;3.60;;;3.00;;
1799;SDS011;919;48.274;12.292;2023-08-01T09:06:43;3.70;;;3.30;;
1799;SDS011;919;48.274;12.292;2023-08-01T09:09:13;4.00;;;3.70;;
1799;SDS011;919;48.274;12.292;2023-08-01T09:11:41;3.47;;;3.10;;
1799;SDS011;919;48.274;12.292;2023-08-01T09:14:11;7.37;;;3.77;;
1799;SDS011;919;48.274;12.292;2023-08-01T09:16:42;6.30;;;4.53;;
1799;SDS011;919;48.274;12.292;2023-08-01T09:19:09;5.53;;;3.70;;
1799;SDS011;919;48.274;12.292;2023-08-01T09:21:41;4.80;;;3.80;;
1799;SDS011;919;48.274;12.292;2023-08-01T09:24:13;4.90;;;4.30;;
1799;SDS011;919;48.274;12.292;2023-08-01T09:26:41;6.20;;;4.30;;
1799;SDS011;919;48.274;12.292;2023-08-01T09:29:09;4.13;;;3.77;;
1799;SDS011;919;48.274;12.292;2023-08-01T09:31:37;4.00;;;3.60;;
1799;SDS011;919;48.274;12.292;2023-08-01T09:34:17;6.53;;;3.47;;
1799;SDS011;919;48.274;12.292;2023-08-01T09:36:50;5.97;;;3.87;;
1799;SDS011;919;48.274;12.292;2023-08-01T09:39:23;4.73;;;4.10;;
1799;SDS011;919;48.274;12.292;2023-08-01T09:41:54;4.70;;;4.03;;
1799;SDS011;919;48.274;12.292;2023-08-01T09:44:22;5.83;;;3.43;;
1799;SDS011;919;48.274;12.292;2023-08-01T09:46:57;4.47;;;4.03;;
1799;SDS011;919;48.274;12.292;2023-08-01T09:49:26;4.23;;;3.93;;
1799;SDS011;919;48.274;12.292;2023-08-01T09:51:55;6.27;;;4.30;;
1799;SDS011;919;48.274;12.292;2023-08-01T09:54:22;4.67;;;3.40;;
1799;SDS011;919;48.274;12.292;2023-08-01T09:56:50;6.83;;;3.97;;
1799;SDS011;919;48.274;12.292;2023-08-01T09:59:24;4.23;;;3.73;;
1799;SDS011;919;48.274;12.292;2023-08-01T10:02:02;4.73;;;3.47;;
1799;SDS011;919;48.274;12.292;2023-08-01T10:04:33;4.03;;;3.63;;
1799;SDS011;919;48.274;12.292;2023-08-01T10:07:11;3.40;;;3.10;;
1799;SDS011;919;48.274;12.292;2023-08-01T10:09:41;4.83;;;4.03;;
1799;SDS011;919;48.274;12.292;2023-08-01T10:12:12;4.77;;;4.00;;
1799;SDS011;919;48.274;12.292;2023-08-01T10:14:48;5.00;;;4.00;;
1799;SDS011;919;48.274;12.292;2023-08-01T10:17:15;4.47;;;3.33;;
1799;SDS011;919;48.274;12.292;2023-08-01T10:19:43;6.33;;;3.90;;
1799;SDS011;919;48.274;12.292;2023-08-01T10:22:12;4.90;;;4.50;;
1799;SDS011;919;48.274;12.292;2023-08-01T10:24:42;3.93;;;2.90;;
1799;SDS011;919;48.274;12.292;2023-08-01T10:27:35;4.53;;;4.00;;
1799;SDS011;919;48.274;12.292;2023-08-01T10:30:03;3.90;;;3.60;;
1799;SDS011;919;48.274;12.292;2023-08-01T10:32:34;4.27;;;3.87;;
1799;SDS011;919;48.274;12.292;2023-08-01T10:35:03;6.07;;;3.93;;
1799;SDS011;919;48.274;12.292;2023-08-01T10:37:41;4.33;;;3.73;;
1799;SDS011;919;48.274;12.292;2023-08-01T10:40:09;5.13;;;3.90;;
1799;SDS011;919;48.274;12.292;2023-08-01T10:42:40;4.30;;;3.77;;
1799;SDS011;919;48.274;12.292;2023-08-01T10:45:22;4.90;;;4.20;;
1799;SDS011;919;48.274;12.292;2023-08-01T10:47:52;4.97;;;4.53;;
1799;SDS011;919;48.274;12.292;2023-08-01T10:50:24;5.13;;;4.33;;
1799;SDS011;919;48.274;12.292;2023-08-01T10:53:09;6.07;;;4.57;;
1799;SDS011;919;48.274;12.292;2023-08-01T10:55:40;5.20;;;4.10;;
1799;SDS011;919;48.274;12.292;2023-08-01T10:58:12;6.37;;;5.10;;
1799;SDS011;919;48.274;12.292;2023-08-01T11:00:46;6.13;;;4.23;;
1799;SDS011;919;48.274;12.292;2023-08-01T11:03:38;4.17;;;3.60;;
1799;SDS011;919;48.274;12.292;2023-08-01T11:06:15;4.93;;;3.90;;
1799;SDS011;919;48.274;12.292;2023-08-01T11:08:47;3.43;;;2.80;;
1799;SDS011;919;48.274;12.292;2023-08-01T11:11:18;2.97;;;2.30;;
1799;SDS011;919;48.274;12.292;2023-08-01T11:13:56;3.87;;;2.70;;
1799;SDS011;919;48.274;12.292;2023-08-01T11:16:34;3.17;;;2.00;;
1799;SDS011;919;48.274;12.292;2023-08-01T11:19:16;2.67;;;2.30;;
1799;SDS011;919;48.274;12.292;2023-08-01T11:21:51;2.53;;;2.33;;
1799;SDS011;919;48.274;12.292;2023-08-01T11:24:22;2.37;;;2.13;;
1799;SDS011;919;48.274;12.292;2023-08-01T11:26:52;3.13;;;2.50;;
1799;SDS011;919;48.274;12.292;2023-08-01T11:29:25;3.83;;;2.70;;
1799;SDS011;919;48.274;12.292;2023-08-01T11:31:53;4.20;;;2.37;;
1799;SDS011;919;48.274;12.292;2023-08-01T11:34:23;2.43;;;2.23;;
1799;SDS011;919;48.274;12.292;2023-08-01T11:37:02;2.47;;;2.27;;
1799;SDS011;919;48.274;12.292;2023-08-01T11:39:37;2.90;;;2.17;;
1799;SDS011;919;48.274;12.292;2023-08-01T11:42:04;2.70;;;2.27;;
1799;SDS011;919;48.274;12.292;2023-08-01T11:44:35;3.47;;;2.57;;
1799;SDS011;919;48.274;12.292;2023-08-01T11:47:02;2.87;;;2.33;;
1799;SDS011;919;48.274;12.292;2023-08-01T11:49:36;3.43;;;2.30;;
1799;SDS011;919;48.274;12.292;2023-08-01T11:52:03;3.93;;;2.60;;
1799;SDS011;919;48.274;12.292;2023-08-01T11:54:44;2.70;;;2.50;;
1799;SDS011;919;48.274;12.292;2023-08-01T11:57:12;2.77;;;2.47;;
1799;SDS011;919;48.274;12.292;2023-08-01T11:59:46;3.37;;;2.70;;
1799;SDS011;919;48.274;12.292;2023-08-01T12:02:21;4.00;;;2.30;;
1799;SDS011;919;48.274;12.292;2023-08-01T12:04:50;4.20;;;2.40;;
1799;SDS011;919;48.274;12.292;2023-08-01T12:07:17;3.00;;;2.60;;
1799;SDS011;919;48.274;12.292;2023-08-01T12:09:54;5.70;;;3.07;;
1799;SDS011;919;48.274;12.292;2023-08-01T12:12:21;3.73;;;2.60;;
1799;SDS011;919;48.274;12.292;2023-08-01T12:14:49;3.30;;;2.63;;
1799;SDS011;919;48.274;12.292;2023-08-01T12:17:23;3.00;;;2.70;;
1799;SDS011;919;48.274;12.292;2023-08-01T12:19:50;4.00;;;2.50;;
1799;SDS011;919;48.274;12.292;2023-08-01T12:22:24;3.03;;;2.73;;
1799;SDS011;919;48.274;12.292;2023-08-01T12:24:52;3.10;;;2.20;;
1799;SDS011;919;48.274;12.292;2023-08-01T12:27:19;3.40;;;2.73;;
1799;SDS011;919;48.274;12.292;2023-08-01T12:29:49;6.30;;;2.40;;
1799;SDS011;919;48.274;12.292;2023-08-01T12:32:16;3.50;;;2.90;;
1799;SDS011;919;48.274;12.292;2023-08-01T12:34:45;2.33;;;2.13;;
1799;SDS011;919;48.274;12.292;2023-08-01T12:37:12;3.77;;;2.10;;
1799;SDS011;919;48.274;12.292;2023-08-01T12:39:39;3.43;;;2.20;;
1799;SDS011;919;48.274;12.292;2023-08-01T12:42:11;2.67;;;1.60;;
1799;SDS011;919;48.274;12.292;2023-08-01T12:44:38;4.63;;;1.73;;
1799;SDS011;919;48.274;12.292;2023-08-01T12:47:13;3.43;;;1.93;;
1799;SDS011;919;48.274;12.292;2023-08-01T12:49:41;2.13;;;1.93;;
1799;SDS011;919;48.274;12.292;2023-08-01T12:52:08;2.77;;;2.37;;
1799;SDS011;919;48.274;12.292;2023-08-01T12:54:53;4.13;;;2.57;;
1799;SDS011;919;48.274;12.292;2023-08-01T12:57:21;2.63;;;2.07;;
1799;SDS011;919;48.274;12.292;2023-08-01T12:59:49;2.43;;;2.23;;
1799;SDS011;919;48.274;12.292;2023-08-01T13:02:16;2.60;;;1.73;;
1799;SDS011;919;48.274;12.292;2023-08-01T13:04:44;2.50;;;2.27;;
1799;SDS011;919;48.274;12.292;2023-08-01T13:07:11;2.50;;;2.30;;
1799;SDS011;919;48.274;12.292;2023-08-01T13:09:38;5.00;;;2.60;;
1799;SDS011;919;48.274;12.292;2023-08-01T13:12:09;2.50;;;2.30;;
1799;SDS011;919;48.274;12.292;2023-08-01T13:14:49;2.77;;;2.57;;
1799;SDS011;919;48.274;12.292;2023-08-01T13:17:17;3.23;;;2.33;;
1799;SDS011;919;48.274;12.292;2023-08-01T13:19:44;7.23;;;2.80;;
1799;SDS011;919;48.274;12.292;2023-08-01T13:22:12;2.50;;;2.20;;
1799;SDS011;919;48.274;12.292;2023-08-01T13:24:44;3.30;;;2.40;;
1799;SDS011;919;48.274;12.292;2023-08-01T13:27:12;2.70;;;2.27;;
1799;SDS011;919;48.274;12.292;2023-08-01T13:29:42;2.50;;;2.27;;
1799;SDS011;919;48.274;12.292;2023-08-01T13:32:16;3.00;;;2.60;;
1799;SDS011;919;48.274;12.292;2023-08-01T13:34:44;2.10;;;1.90;;
1799;SDS011;919;48.274;12.292;2023-08-01T13:37:13;2.13;;;1.90;;
1799;SDS011;919;48.274;12.292;2023-08-01T13:39:40;6.60;;;2.07;;
1799;SDS011;919;48.274;12.292;2023-08-01T13:42:07;3.20;;;2.50;;
1799;SDS011;919;48.274;12.292;2023-08-01T13:44:34;4.00;;;2.70;;
1799;SDS011;919;48.274;12.292;2023-08-01T13:47:02;3.83;;;1.80;;
1799;SDS011;919;48.274;12.292;2023-08-01T13:49:34;3.77;;;3.13;;
1799;SDS011;919;48.274;12.292;2023-08-01T13:52:01;2.20;;;2.00;;
1799;SDS011;919;48.274;12.292;2023-08-01T13:54:29;3.00;;;2.10;;
1799;SDS011;919;48.274;12.292;2023-08-01T13:57:00;3.43;;;2.07;;
1799;SDS011;919;48.274;12.292;2023-08-01T13:59:28;3.03;;;2.30;;
1799;SDS011;919;48.274;12.292;2023-08-01T14:01:56;2.70;;;2.03;;
1799;SDS011;919;48.274;12.292;2023-08-01T14:04:23;3.57;;;2.07;;
1799;SDS011;919;48.274;12.292;2023-08-01T14:06:51;4.10;;;2.10;;
1799;SDS011;919;48.274;12.292;2023-08-01T14:09:18;2.20;;;1.87;;
1799;SDS011;919;48.274;12.292;2023-08-01T14:11:45;3.67;;;2.70;;
1799;SDS011;919;48.274;12.292;2023-08-01T14:14:12;2.87;;;2.57;;
1799;SDS011;919;48.274;12.292;2023-08-01T14:16:39;1.60;;;1.50;;
1799;SDS011;919;48.274;12.292;2023-08-01T14:19:06;2.40;;;1.80;;
1799;SDS011;919;48.274;12.292;2023-08-01T14:21:33;2.10;;;1.90;;
1799;SDS011;919;48.274;12.292;2023-08-01T14:24:02;2.23;;;1.73;;
1799;SDS011;919;48.274;12.292;2023-08-01T14:26:29;1.70;;;1.60;;
1799;SDS011;919;48.274;12.292;2023-08-01T14:28:55;1.93;;;1.60;;
1799;SDS011;919;48.274;12.292;2023-08-01T14:31:22;4.33;;;1.80;;
1799;SDS011;919;48.274;12.292;2023-08-01T14:33:49;1.80;;;1.53;;
1799;SDS011;919;48.274;12.292;2023-08-01T14:36:24;1.40;;;1.30;;
1799;SDS011;919;48.274;12.292;2023-08-01T14:38:51;5.53;;;2.00;;
1799;SDS011;919;48.274;12.292;2023-08-01T14:41:22;1.80;;;1.43;;
1799;SDS011;919;48.274;12.292;2023-08-01T14:43:53;1.73;;;1.57;;
1799;SDS011;919;48.274;12.292;2023-08-01T14:46:23;2.20;;;1.73;;
1799;SDS011;919;48.274;12.292;2023-08-01T14:48:53;2.33;;;1.67;;
1799;SDS011;919;48.274;12.292;2023-08-01T14:51:20;4.13;;;3.10;;
1799;SDS011;919;48.274;12.292;2023-08-01T14:53:47;3.80;;;2.07;;
1799;SDS011;919;48.274;12.292;2023-08-01T14:56:14;2.90;;;1.77;;
1799;SDS011;919;48.274;12.292;2023-08-01T14:58:43;1.90;;;1.60;;
1799;SDS011;919;48.274;12.292;2023-08-01T15:01:13;1.53;;;1.30;;
1799;SDS011;919;48.274;12.292;2023-08-01T15:03:40;1.70;;;1.43;;
1799;SDS011;919;48.274;12.292;2023-08-01T15:06:07;1.30;;;1.20;;
1799;SDS011;919;48.274;12.292;2023-08-01T15:08:34;1.93;;;1.63;;
1799;SDS011;919;48.274;12.292;2023-08-01T15:11:02;2.13;;;1.60;;
1799;SDS011;919;48.274;12.292;2023-08-01T15:13:31;1.77;;;1.67;;
1799;SDS011;919;48.274;12.292;2023-08-01T15:15:59;1.73;;;1.43;;
1799;SDS011;919;48.274;12.292;2023-08-01T15:18:27;4.20;;;2.13;;
1799;SDS011;919;48.274;12.292;2023-08-01T15:20:55;3.33;;;1.80;;
1799;SDS011;919;48.274;12.292;2023-08-01T15:23:22;2.27;;;1.30;;